PATQ

Details ICAO PATQ (ATK)
Name ATQASUK EDWARD BURNELL SR MEM
Region USA (Alaska)
Timezone America/Anchorage (UTC-9.0)
Plans Departing 1
Arriving 1
Stats Elevation 96 ft / 29 m (AMSL)
Location 70.467116° -157.435662°
Runways 1
Magnetic Variation 14.173° E
Sunrise Unknown / Unknown
Sunset Unknown / Unknown
Advertisement - Login to hide

Runways

ID Width Length Bearing (true) Bearing (mag) Surface Threshold Offset Overrun Length
06 89 ft / 27 m 4,374 ft / 1,333 m 81.04° 66.87° Gravel 0 ft / 0 m 0 ft / 0 m
24 89 ft / 27 m 4,374 ft / 1,333 m 261.07° 246.90° Gravel 0 ft / 0 m 0 ft / 0 m

Map

Weather


0- 5 10 15 20 25 30 35+ Temperature / ° C

Clouds and Precipitation
Forecast for 2017-12-16 18:00 UTC. Updated 15 minutes ago

Ground ~20,000 ft ~40,000 ft Winds

METAR

PATQ 161529Z AUTO 06023KT 3/4SM -SN BR BKN009 OVC017 M20/M22 A2963 RMK AO2 PK WND 05030/1511 CIG 006V014 P0000 FZRANO TSNO

TAF

Not found

Frequencies

Recorded 119.92 MHz ASOS
Unicom 122.90 MHz CTAF
Warning: Do not use this data for real-world aviation or navigation. No guarantee of current accuracy is given.